createdAt,value
2023-02-17T00:00:20.541Z,69.8
2023-02-17T00:01:22.450Z,69.8
2023-02-17T00:02:24.546Z,69.8
2023-02-17T00:03:26.472Z,69.8
2023-02-17T00:04:28.105Z,69.8
2023-02-17T00:05:30.473Z,69.8
2023-02-17T00:06:31.829Z,69.8
2023-02-17T00:07:33.821Z,69.8
2023-02-17T00:08:35.619Z,69.8
2023-02-17T00:09:37.961Z,69.8
2023-02-17T00:10:39.311Z,69.8
2023-02-17T00:11:41.282Z,69.8
2023-02-17T00:12:43.083Z,69.8
2023-02-17T00:13:45.658Z,69.8
2023-02-17T00:14:47.042Z,69.8
2023-02-17T00:15:49.068Z,69.8
2023-02-17T00:16:50.737Z,69.8
2023-02-17T00:17:52.901Z,69.8
2023-02-17T00:18:54.519Z,69.8
2023-02-17T00:19:56.398Z,69.8
2023-02-17T00:20:58.443Z,69.8
2023-02-17T00:22:00.214Z,69.8
2023-02-17T00:23:02.096Z,69.8
2023-02-17T00:24:04.034Z,69.8
2023-02-17T00:25:05.874Z,69.8
2023-02-17T00:26:08.580Z,69.8
2023-02-17T00:27:09.936Z,69.8
2023-02-17T00:28:11.673Z,69.8
2023-02-17T00:29:13.650Z,69.8
2023-02-17T00:30:15.764Z,69.8
2023-02-17T00:31:17.759Z,69.8
2023-02-17T00:32:19.336Z,69.8
2023-02-17T00:33:21.092Z,69.8
2023-02-17T00:34:23.007Z,69.7
2023-02-17T00:35:24.886Z,69.7
2023-02-17T00:36:26.800Z,69.7
2023-02-17T00:37:28.666Z,69.7
2023-02-17T00:38:30.527Z,69.7
2023-02-17T00:39:32.432Z,69.7
2023-02-17T00:40:34.431Z,69.7
2023-02-17T00:41:36.229Z,69.7
2023-02-17T00:42:38.091Z,69.7
2023-02-17T00:43:39.990Z,69.7
2023-02-17T00:44:41.893Z,69.7
2023-02-17T00:45:43.959Z,69.7
2023-02-17T00:46:45.837Z,69.7
2023-02-17T00:47:48.110Z,69.7
2023-02-17T00:48:49.803Z,69.7
2023-02-17T00:49:51.332Z,69.7
2023-02-17T00:50:53.291Z,69.7
2023-02-17T00:51:55.558Z,69.7
2023-02-17T00:52:56.970Z,69.7
2023-02-17T00:53:58.933Z,69.7
2023-02-17T00:55:00.840Z,69.7
2023-02-17T00:56:03.072Z,69.7
2023-02-17T00:57:04.555Z,69.7
2023-02-17T00:58:06.452Z,69.7
2023-02-17T00:59:08.282Z,69.7
2023-02-17T01:00:10.437Z,69.7
2023-02-17T01:01:12.269Z,69.7
2023-02-17T01:02:14.019Z,69.7
2023-02-17T01:03:15.910Z,69.7
2023-02-17T01:04:17.691Z,69.7
2023-02-17T01:05:19.575Z,69.7
2023-02-17T01:06:21.571Z,69.7
2023-02-17T01:07:23.337Z,69.7
2023-02-17T01:08:25.253Z,69.7
2023-02-17T01:09:27.113Z,69.7
2023-02-17T01:10:29.077Z,69.7
2023-02-17T01:11:30.981Z,69.7
2023-02-17T01:12:32.816Z,69.7
2023-02-17T01:13:34.749Z,69.7
2023-02-17T01:14:36.549Z,69.7
2023-02-17T01:15:38.509Z,69.7
2023-02-17T01:16:40.570Z,69.7
2023-02-17T01:17:42.278Z,69.7
2023-02-17T01:18:44.090Z,69.7
2023-02-17T01:19:46.051Z,69.7
2023-02-17T01:20:47.938Z,69.7
2023-02-17T01:21:49.789Z,69.7
2023-02-17T01:22:51.650Z,69.7
2023-02-17T01:23:53.631Z,69.7
2023-02-17T01:24:55.390Z,69.7
2023-02-17T01:25:57.370Z,69.7
2023-02-17T01:26:59.259Z,69.7
2023-02-17T01:28:00.999Z,69.7
2023-02-17T01:29:02.952Z,69.7
2023-02-17T01:30:05.458Z,69.7
2023-02-17T01:31:06.980Z,69.7
2023-02-17T01:32:08.707Z,69.6
2023-02-17T01:33:10.514Z,69.7
2023-02-17T01:34:12.773Z,69.7
2023-02-17T01:35:14.152Z,69.7
2023-02-17T01:36:16.192Z,69.6
2023-02-17T01:37:17.913Z,69.7
2023-02-17T01:38:20.436Z,69.7
2023-02-17T01:39:21.810Z,69.7
2023-02-17T01:40:23.642Z,69.7
2023-02-17T01:41:25.489Z,69.7
2023-02-17T01:42:27.769Z,69.7
2023-02-17T01:43:29.332Z,69.7
2023-02-17T01:44:31.407Z,69.7
2023-02-17T01:45:33.119Z,69.7
2023-02-17T01:46:35.213Z,69.7
2023-02-17T01:47:36.981Z,69.7
2023-02-17T01:48:38.775Z,69.7
2023-02-17T01:49:40.756Z,69.7
2023-02-17T01:50:42.524Z,69.7
2023-02-17T01:51:44.501Z,69.7
2023-02-17T01:52:46.319Z,69.7
2023-02-17T01:53:48.135Z,69.7
2023-02-17T01:54:50.144Z,69.7
2023-02-17T01:55:51.995Z,69.7
2023-02-17T01:56:53.796Z,69.7
2023-02-17T01:57:55.713Z,69.7
2023-02-17T01:58:57.676Z,69.7
2023-02-17T01:59:59.461Z,69.7
2023-02-17T02:01:01.333Z,69.7
2023-02-17T02:02:03.500Z,69.7
2023-02-17T02:03:05.422Z,69.7
2023-02-17T02:04:07.082Z,69.7
2023-02-17T02:05:08.876Z,69.7
2023-02-17T02:06:10.740Z,69.7
2023-02-17T02:07:12.673Z,69.7
2023-02-17T02:08:14.554Z,69.7
2023-02-17T02:09:16.363Z,69.7
2023-02-17T02:10:18.252Z,69.6
2023-02-17T02:11:20.209Z,69.7
2023-02-17T02:12:22.066Z,69.6
2023-02-17T02:13:23.889Z,69.7
2023-02-17T02:14:25.851Z,69.6
2023-02-17T02:15:27.648Z,69.7
2023-02-17T02:16:30.412Z,69.7
2023-02-17T02:17:31.469Z,69.7
2023-02-17T02:18:33.411Z,69.7
2023-02-17T02:19:35.123Z,69.7
2023-02-17T02:20:37.550Z,69.6
2023-02-17T02:21:38.903Z,69.6
2023-02-17T02:22:40.866Z,69.6
2023-02-17T02:23:42.785Z,69.6
2023-02-17T02:24:45.124Z,69.6
2023-02-17T02:25:46.470Z,69.6
2023-02-17T02:26:48.465Z,69.6
2023-02-17T02:27:50.324Z,69.6
2023-02-17T02:28:52.453Z,69.6
2023-02-17T02:29:54.380Z,69.6
2023-02-17T02:30:56.043Z,69.6
2023-02-17T02:31:57.995Z,69.6
2023-02-17T02:32:59.845Z,69.6
2023-02-17T02:34:01.690Z,69.6
2023-02-17T02:35:03.434Z,69.6
2023-02-17T02:36:06.619Z,69.6
2023-02-17T02:37:17.905Z,69.6
2023-02-17T02:38:20.414Z,69.6
2023-02-17T02:39:31.547Z,69.6
2023-02-17T02:40:33.486Z,69.6
2023-02-17T02:41:35.949Z,69.6
2023-02-17T02:42:37.226Z,69.6
2023-02-17T02:43:39.190Z,69.6
2023-02-17T02:44:41.126Z,69.6
2023-02-17T02:45:43.340Z,69.6
2023-02-17T02:46:44.845Z,69.6
2023-02-17T02:47:46.722Z,69.6
2023-02-17T02:48:48.909Z,69.6
2023-02-17T02:49:50.640Z,69.6
2023-02-17T02:50:52.365Z,69.6
2023-02-17T02:51:54.277Z,69.6
2023-02-17T02:52:56.095Z,69.6
2023-02-17T02:53:58.252Z,69.6
2023-02-17T02:54:59.956Z,69.6
2023-02-17T02:56:01.961Z,69.6
2023-02-17T02:57:03.783Z,69.6
2023-02-17T02:58:05.582Z,69.6
2023-02-17T02:59:07.501Z,69.6
2023-02-17T03:00:09.441Z,69.6
2023-02-17T03:01:11.435Z,69.6
2023-02-17T03:02:13.123Z,69.6
2023-02-17T03:03:15.201Z,69.6
2023-02-17T03:04:17.326Z,69.6
2023-02-17T03:05:19.024Z,69.6
2023-02-17T03:06:20.898Z,69.6
2023-02-17T03:07:22.728Z,69.6
2023-02-17T03:08:24.520Z,69.6
2023-02-17T03:09:26.400Z,69.6
2023-02-17T03:10:28.380Z,69.6
2023-02-17T03:11:30.199Z,69.6
2023-02-17T03:12:32.108Z,69.6
2023-02-17T03:13:33.990Z,69.6
2023-02-17T03:14:35.850Z,69.6
2023-02-17T03:15:37.692Z,69.6
2023-02-17T03:16:39.672Z,69.6
2023-02-17T03:17:41.480Z,69.6
2023-02-17T03:18:43.388Z,69.6
2023-02-17T03:19:45.799Z,69.6
2023-02-17T03:20:47.297Z,69.6
2023-02-17T03:21:48.992Z,69.6
2023-02-17T03:22:50.942Z,69.6
2023-02-17T03:23:53.210Z,69.6
2023-02-17T03:24:54.643Z,69.6
2023-02-17T03:25:56.618Z,69.6
2023-02-17T03:26:58.463Z,69.6
2023-02-17T03:28:00.572Z,69.6
2023-02-17T03:29:02.230Z,69.6
2023-02-17T03:30:04.229Z,69.6
2023-02-17T03:31:06.064Z,69.6
2023-02-17T03:32:08.213Z,69.5
2023-02-17T03:33:09.800Z,69.5
2023-02-17T03:34:11.601Z,69.5
2023-02-17T03:35:13.483Z,69.5
2023-02-17T03:36:15.387Z,69.5
2023-02-17T03:37:17.202Z,69.5
2023-02-17T03:38:19.189Z,69.5
2023-02-17T03:39:21.051Z,69.6
2023-02-17T03:40:22.840Z,69.6
2023-02-17T03:41:24.761Z,69.5
2023-02-17T03:42:26.712Z,69.6
2023-02-17T03:43:28.520Z,69.5
2023-02-17T03:44:30.395Z,69.5
2023-02-17T03:45:32.312Z,69.5
2023-02-17T03:46:34.240Z,69.5
2023-02-17T03:47:36.070Z,69.5
2023-02-17T03:48:37.917Z,69.5
2023-02-17T03:49:39.911Z,69.5
2023-02-17T03:50:41.761Z,69.5
2023-02-17T03:51:43.664Z,69.5
2023-02-17T03:52:45.570Z,69.5
2023-02-17T03:53:47.504Z,69.5
2023-02-17T03:54:49.296Z,69.5
2023-02-17T03:55:51.229Z,69.5
2023-02-17T03:56:53.129Z,69.5
2023-02-17T03:57:55.113Z,69.5
2023-02-17T03:58:56.916Z,69.6
2023-02-17T03:59:58.836Z,69.6
2023-02-17T04:01:00.861Z,69.6
2023-02-17T04:02:03.064Z,69.6
2023-02-17T04:03:04.576Z,69.6
2023-02-17T04:04:06.444Z,69.6
2023-02-17T04:05:08.208Z,69.6
2023-02-17T04:06:10.603Z,69.6
2023-02-17T04:07:12.094Z,69.6
2023-02-17T04:08:13.814Z,69.6
2023-02-17T04:09:15.727Z,69.6
2023-02-17T04:10:18.244Z,69.6
2023-02-17T04:11:19.480Z,69.6
2023-02-17T04:12:21.415Z,69.6
2023-02-17T04:13:23.249Z,69.6
2023-02-17T04:14:25.466Z,69.6
2023-02-17T04:15:27.153Z,69.6
2023-02-17T04:16:28.947Z,69.5
2023-02-17T04:17:30.855Z,69.5
2023-02-17T04:18:32.798Z,69.5
2023-02-17T04:19:34.635Z,69.5
2023-02-17T04:20:36.477Z,69.5
2023-02-17T04:21:38.369Z,69.5
2023-02-17T04:22:40.367Z,69.5
2023-02-17T04:23:42.121Z,69.5
2023-02-17T04:24:44.015Z,69.5
2023-02-17T04:25:45.901Z,69.6
2023-02-17T04:26:47.764Z,69.5
2023-02-17T04:27:49.605Z,69.6
2023-02-17T04:28:51.556Z,69.6
2023-02-17T04:29:53.518Z,69.5
2023-02-17T04:30:55.515Z,69.6
2023-02-17T04:31:57.832Z,69.6
2023-02-17T04:33:09.406Z,69.6
2023-02-17T04:34:11.193Z,69.6
2023-02-17T04:35:13.150Z,69.6
2023-02-17T04:36:15.029Z,69.6
2023-02-17T04:37:16.944Z,69.6
2023-02-17T04:38:18.900Z,69.6
2023-02-17T04:39:20.697Z,69.6
2023-02-17T04:40:22.527Z,69.6
2023-02-17T04:41:24.425Z,69.6
2023-02-17T04:42:26.356Z,69.6
2023-02-17T04:43:28.156Z,69.6
2023-02-17T04:44:30.054Z,69.6
2023-02-17T04:45:31.996Z,69.6
2023-02-17T04:46:33.814Z,69.6
2023-02-17T04:47:35.715Z,69.6
2023-02-17T04:48:37.664Z,69.6
2023-02-17T04:49:39.474Z,69.6
2023-02-17T04:50:41.384Z,69.6
2023-02-17T04:51:43.306Z,69.6
2023-02-17T04:52:45.125Z,69.6
2023-02-17T04:53:47.098Z,69.6
2023-02-17T04:54:48.957Z,69.6
2023-02-17T04:55:50.886Z,69.6
2023-02-17T04:56:53.274Z,69.5
2023-02-17T04:57:54.615Z,69.6
2023-02-17T04:58:56.504Z,69.6
2023-02-17T04:59:58.364Z,69.6
2023-02-17T05:01:00.818Z,69.6
2023-02-17T05:02:02.208Z,69.6
2023-02-17T05:03:04.043Z,69.6
2023-02-17T05:04:06.013Z,69.5
2023-02-17T05:05:08.506Z,69.6
2023-02-17T05:06:09.722Z,69.6
2023-02-17T05:07:11.552Z,69.6
2023-02-17T05:08:13.537Z,69.6
2023-02-17T05:09:15.646Z,69.6
2023-02-17T05:10:17.223Z,69.6
2023-02-17T05:11:19.072Z,69.6
2023-02-17T05:12:20.955Z,69.6
2023-02-17T05:13:22.914Z,69.5
2023-02-17T05:14:24.746Z,69.6
2023-02-17T05:15:26.612Z,69.6
2023-02-17T05:16:28.487Z,69.6
2023-02-17T05:17:30.403Z,69.6
2023-02-17T05:18:32.262Z,69.6
2023-02-17T05:19:34.150Z,69.6
2023-02-17T05:20:36.118Z,69.6
2023-02-17T05:21:37.913Z,69.6
2023-02-17T05:22:39.905Z,69.6
2023-02-17T05:23:41.886Z,69.6
2023-02-17T05:24:43.706Z,69.6
2023-02-17T05:25:45.478Z,69.6
2023-02-17T05:26:47.435Z,69.6
2023-02-17T05:27:49.353Z,69.6
2023-02-17T05:28:51.123Z,69.5
2023-02-17T05:29:53.062Z,69.5
2023-02-17T05:30:55.053Z,69.5
2023-02-17T05:31:56.917Z,69.6
2023-02-17T05:32:58.723Z,69.5
2023-02-17T05:34:00.693Z,69.6
2023-02-17T05:35:02.440Z,69.6
2023-02-17T05:36:05.782Z,69.5
2023-02-17T05:37:16.504Z,69.5
2023-02-17T05:38:18.366Z,69.6
2023-02-17T05:39:20.276Z,69.6
2023-02-17T05:40:22.231Z,69.6
2023-02-17T05:41:24.016Z,69.6
2023-02-17T05:42:25.946Z,69.6
2023-02-17T05:43:27.944Z,69.6
2023-02-17T05:44:29.746Z,69.6
2023-02-17T05:45:31.575Z,69.6
2023-02-17T05:46:33.687Z,69.6
2023-02-17T05:47:35.504Z,69.6
2023-02-17T05:48:37.236Z,69.6
2023-02-17T05:49:39.248Z,69.6
2023-02-17T05:50:41.076Z,69.6
2023-02-17T05:51:43.396Z,69.6
2023-02-17T05:52:44.768Z,69.6
2023-02-17T05:53:46.714Z,69.6
2023-02-17T05:54:48.577Z,69.6
2023-02-17T05:55:51.137Z,69.6
2023-02-17T05:56:52.414Z,69.6
2023-02-17T05:57:54.187Z,69.6
2023-02-17T05:58:56.098Z,69.6
2023-02-17T05:59:58.369Z,69.6
2023-02-17T06:00:59.960Z,69.6
2023-02-17T06:02:01.823Z,69.6
2023-02-17T06:03:03.996Z,69.6
2023-02-17T06:04:05.672Z,69.6
2023-02-17T06:05:07.690Z,69.6
2023-02-17T06:06:09.562Z,69.6
2023-02-17T06:07:11.187Z,69.6
2023-02-17T06:08:13.089Z,69.6
2023-02-17T06:09:15.009Z,69.6
2023-02-17T06:10:16.947Z,69.6
2023-02-17T06:11:18.852Z,69.6
2023-02-17T06:12:20.719Z,69.6
2023-02-17T06:13:22.600Z,69.6
2023-02-17T06:14:24.498Z,69.6
2023-02-17T06:15:26.452Z,69.6
2023-02-17T06:16:28.384Z,69.6
2023-02-17T06:17:30.109Z,69.6
2023-02-17T06:18:32.027Z,69.6
2023-02-17T06:19:33.930Z,69.6
2023-02-17T06:20:35.748Z,69.6
2023-02-17T06:21:37.639Z,69.6
2023-02-17T06:22:39.500Z,69.7
2023-02-17T06:23:41.390Z,69.7
2023-02-17T06:24:43.349Z,69.7
2023-02-17T06:25:45.190Z,69.7
2023-02-17T06:26:47.153Z,69.7
2023-02-17T06:27:48.950Z,69.7
2023-02-17T06:28:50.828Z,69.7
2023-02-17T06:29:52.699Z,69.7
2023-02-17T06:30:54.882Z,69.7
2023-02-17T06:31:56.947Z,69.7
2023-02-17T06:32:58.370Z,69.7
2023-02-17T06:34:00.828Z,69.7
2023-02-17T06:35:02.283Z,69.7
2023-02-17T06:36:05.154Z,69.7
2023-02-17T06:37:16.301Z,69.7
2023-02-17T06:38:18.896Z,69.7
2023-02-17T06:39:20.096Z,69.7
2023-02-17T06:40:21.915Z,69.7
2023-02-17T06:41:23.810Z,69.7
2023-02-17T06:42:26.330Z,69.7
2023-02-17T06:43:27.536Z,69.7
2023-02-17T06:44:29.435Z,69.7
2023-02-17T06:45:31.592Z,69.7
2023-02-17T06:46:33.695Z,69.7
2023-02-17T06:47:35.073Z,69.7
2023-02-17T06:48:37.014Z,69.7
2023-02-17T06:49:41.415Z,69.7
2023-02-17T06:50:51.505Z,69.7
2023-02-17T06:51:52.934Z,69.7
2023-02-17T06:52:54.905Z,69.7
2023-02-17T06:53:56.704Z,69.7
2023-02-17T06:54:59.126Z,69.7
2023-02-17T06:56:00.603Z,69.7
2023-02-17T06:57:02.454Z,69.7
2023-02-17T06:58:04.367Z,69.7
2023-02-17T06:59:06.562Z,69.7
2023-02-17T07:00:08.205Z,69.7
2023-02-17T07:01:09.953Z,69.7
2023-02-17T07:02:12.339Z,69.7
2023-02-17T07:03:13.958Z,69.7
2023-02-17T07:04:15.637Z,69.7
2023-02-17T07:05:17.544Z,69.7
2023-02-17T07:06:19.356Z,69.7
2023-02-17T07:07:21.287Z,69.7
2023-02-17T07:08:23.397Z,69.7
2023-02-17T07:09:25.404Z,69.7
2023-02-17T07:10:27.184Z,69.7
2023-02-17T07:11:29.053Z,69.7
2023-02-17T07:12:30.929Z,69.7
2023-02-17T07:13:32.963Z,69.7
2023-02-17T07:14:34.733Z,69.7
2023-02-17T07:15:36.640Z,69.7
2023-02-17T07:16:38.731Z,69.7
2023-02-17T07:17:40.462Z,69.7
2023-02-17T07:18:42.367Z,69.7
2023-02-17T07:19:44.258Z,69.7
2023-02-17T07:20:46.058Z,69.7
2023-02-17T07:21:48.104Z,69.7
2023-02-17T07:22:49.908Z,69.7
2023-02-17T07:23:51.748Z,69.7
2023-02-17T07:24:53.629Z,69.7
2023-02-17T07:25:55.588Z,69.7
2023-02-17T07:26:57.389Z,69.7
2023-02-17T07:27:59.279Z,69.7
2023-02-17T07:29:01.967Z,69.7
2023-02-17T07:30:03.323Z,69.7
2023-02-17T07:31:05.163Z,69.7
2023-02-17T07:32:07.011Z,69.7
2023-02-17T07:33:09.213Z,69.7
2023-02-17T07:34:10.550Z,69.7
2023-02-17T07:35:12.468Z,69.7
2023-02-17T07:36:14.341Z,69.7
2023-02-17T07:37:16.828Z,69.7
2023-02-17T07:38:18.129Z,69.7
2023-02-17T07:39:20.002Z,69.7
2023-02-17T07:40:21.878Z,69.7
2023-02-17T07:41:24.055Z,69.7
2023-02-17T07:42:25.977Z,69.7
2023-02-17T07:43:27.905Z,69.7
2023-02-17T07:44:29.775Z,69.7
2023-02-17T07:45:31.652Z,69.7
2023-02-17T07:46:33.549Z,69.7
2023-02-17T07:47:35.401Z,69.7
2023-02-17T07:48:37.295Z,69.7
2023-02-17T07:49:39.085Z,69.7
2023-02-17T07:50:40.958Z,69.7
2023-02-17T07:51:43.002Z,69.7
2023-02-17T07:52:44.804Z,69.7
2023-02-17T07:53:46.646Z,69.7
2023-02-17T07:54:48.645Z,69.7
2023-02-17T07:55:50.494Z,69.7
2023-02-17T07:56:52.324Z,69.7
2023-02-17T07:57:54.227Z,69.7
2023-02-17T07:58:56.155Z,69.7
2023-02-17T07:59:58.007Z,69.7
2023-02-17T08:00:59.809Z,69.6
2023-02-17T08:02:01.926Z,69.7
2023-02-17T08:03:03.617Z,69.7
2023-02-17T08:04:05.643Z,69.6
2023-02-17T08:05:07.444Z,69.7
2023-02-17T08:06:09.295Z,69.7
2023-02-17T08:07:11.133Z,69.6
2023-02-17T08:08:13.063Z,69.6
2023-02-17T08:09:14.997Z,69.7
2023-02-17T08:10:16.883Z,69.7
2023-02-17T08:11:19.173Z,69.6
2023-02-17T08:12:20.600Z,69.7
2023-02-17T08:13:22.534Z,69.7
2023-02-17T08:14:24.465Z,69.6
2023-02-17T08:15:26.990Z,69.7
2023-02-17T08:16:28.345Z,69.7
2023-02-17T08:17:30.156Z,69.7
2023-02-17T08:18:37.111Z,69.7
2023-02-17T08:19:49.795Z,69.7
2023-02-17T08:20:56.362Z,69.7
2023-02-17T08:21:58.226Z,69.6
2023-02-17T08:23:00.135Z,69.6
2023-02-17T08:24:02.556Z,69.6
2023-02-17T08:25:04.006Z,69.6
2023-02-17T08:26:07.085Z,69.6
2023-02-17T08:27:18.004Z,69.6
2023-02-17T08:28:19.940Z,69.6
2023-02-17T08:29:22.008Z,69.6
2023-02-17T08:30:23.886Z,69.6
2023-02-17T08:31:26.202Z,69.6
2023-02-17T08:32:28.027Z,69.6
2023-02-17T08:33:29.306Z,69.6
2023-02-17T08:34:31.180Z,69.6
2023-02-17T08:35:33.201Z,69.6
2023-02-17T08:36:35.455Z,69.6
2023-02-17T08:37:36.841Z,69.6
2023-02-17T08:38:38.794Z,69.6
2023-02-17T08:39:40.681Z,69.6
2023-02-17T08:40:42.951Z,69.6
2023-02-17T08:41:44.423Z,69.6
2023-02-17T08:42:46.256Z,69.6
2023-02-17T08:43:48.115Z,69.6
2023-02-17T08:44:50.373Z,69.6
2023-02-17T08:45:52.027Z,69.6
2023-02-17T08:46:53.927Z,69.6
2023-02-17T08:47:55.795Z,69.6
2023-02-17T08:48:57.629Z,69.6
2023-02-17T08:49:59.511Z,69.6
2023-02-17T08:51:01.355Z,69.6
2023-02-17T08:52:03.276Z,69.6
2023-02-17T08:53:05.044Z,69.6
2023-02-17T08:54:06.956Z,69.6
2023-02-17T08:55:09.007Z,69.6
2023-02-17T08:56:10.700Z,69.6
2023-02-17T08:57:12.638Z,69.6
2023-02-17T08:58:14.544Z,69.6
2023-02-17T08:59:16.345Z,69.6
2023-02-17T09:00:18.373Z,69.6
2023-02-17T09:01:20.289Z,69.6
2023-02-17T09:02:22.105Z,69.6
2023-02-17T09:03:23.774Z,69.6
2023-02-17T09:04:26.100Z,69.6
2023-02-17T09:05:27.565Z,69.6
2023-02-17T09:06:29.554Z,69.6
2023-02-17T09:07:31.486Z,69.6
2023-02-17T09:08:33.293Z,69.6
2023-02-17T09:09:35.105Z,69.6
2023-02-17T09:10:37.165Z,69.6
2023-02-17T09:11:38.889Z,69.6
2023-02-17T09:12:40.864Z,69.6
2023-02-17T09:13:42.777Z,69.6
2023-02-17T09:14:44.704Z,69.6
2023-02-17T09:15:46.712Z,69.6
2023-02-17T09:16:48.393Z,69.6
2023-02-17T09:17:50.454Z,69.6
2023-02-17T09:18:52.657Z,69.6
2023-02-17T09:19:54.075Z,69.6
2023-02-17T09:20:55.947Z,69.6
2023-02-17T09:21:57.808Z,69.6
2023-02-17T09:23:00.459Z,69.6
2023-02-17T09:24:01.659Z,69.6
2023-02-17T09:25:03.483Z,69.6
2023-02-17T09:26:06.818Z,69.6
2023-02-17T09:27:18.109Z,69.6
2023-02-17T09:28:19.428Z,69.6
2023-02-17T09:29:21.427Z,69.6
2023-02-17T09:30:23.536Z,69.6
2023-02-17T09:31:26.210Z,69.6
2023-02-17T09:32:37.412Z,69.6
2023-02-17T09:33:39.428Z,69.6
2023-02-17T09:34:41.138Z,69.6
2023-02-17T09:35:43.620Z,69.6
2023-02-17T09:36:44.970Z,69.6
2023-02-17T09:37:46.840Z,69.6
2023-02-17T09:38:48.686Z,69.6
2023-02-17T09:39:51.200Z,69.6
2023-02-17T09:40:52.642Z,69.6
2023-02-17T09:41:54.430Z,69.6
2023-02-17T09:42:56.314Z,69.6
2023-02-17T09:43:58.595Z,69.6
2023-02-17T09:45:00.096Z,69.6
2023-02-17T09:46:02.102Z,69.6
2023-02-17T09:47:04.205Z,69.6
2023-02-17T09:48:05.751Z,69.6
2023-02-17T09:49:07.716Z,69.7
2023-02-17T09:50:09.498Z,69.6
2023-02-17T09:51:13.050Z,69.6
2023-02-17T09:52:23.799Z,69.6
2023-02-17T09:53:25.482Z,69.7
2023-02-17T09:54:27.346Z,69.7
2023-02-17T09:55:29.302Z,69.7
2023-02-17T09:56:34.013Z,69.7
2023-02-17T09:57:43.285Z,69.7
2023-02-17T09:58:45.324Z,69.7
2023-02-17T09:59:47.105Z,69.7
2023-02-17T10:00:49.202Z,69.7
2023-02-17T10:01:50.995Z,69.7
2023-02-17T10:02:53.018Z,69.7
2023-02-17T10:03:54.825Z,69.7
2023-02-17T10:04:56.870Z,69.7
2023-02-17T10:05:58.416Z,69.7
2023-02-17T10:07:00.356Z,69.7
2023-02-17T10:08:02.276Z,69.7
2023-02-17T10:09:04.240Z,69.7
2023-02-17T10:10:06.008Z,69.7
2023-02-17T10:11:07.893Z,69.7
2023-02-17T10:12:09.860Z,69.7
2023-02-17T10:13:11.770Z,69.7
2023-02-17T10:14:13.486Z,69.7
2023-02-17T10:15:18.430Z,69.8
2023-02-17T10:16:28.027Z,69.8
2023-02-17T10:17:29.494Z,69.8
2023-02-17T10:18:31.583Z,69.8
2023-02-17T10:19:33.329Z,69.8
2023-02-17T10:20:35.309Z,69.8
2023-02-17T10:21:37.077Z,69.8
2023-02-17T10:22:39.067Z,69.8
2023-02-17T10:23:41.182Z,69.8
2023-02-17T10:24:42.986Z,69.8
2023-02-17T10:25:44.708Z,69.8
2023-02-17T10:26:48.596Z,69.8
2023-02-17T10:27:58.897Z,69.8
2023-02-17T10:29:00.806Z,69.8
2023-02-17T10:30:03.005Z,69.8
2023-02-17T10:31:04.988Z,69.8
2023-02-17T10:32:21.107Z,69.8
2023-02-17T10:33:29.024Z,69.9
2023-02-17T10:34:31.752Z,69.9
2023-02-17T10:35:32.573Z,69.9
2023-02-17T10:36:34.662Z,69.9
2023-02-17T10:37:39.205Z,69.9
2023-02-17T10:38:48.514Z,69.9
2023-02-17T10:39:50.512Z,69.9
2023-02-17T10:40:52.400Z,69.9
2023-02-17T10:41:54.186Z,69.9
2023-02-17T10:42:56.114Z,69.9
2023-02-17T10:43:58.045Z,69.9
2023-02-17T10:44:59.971Z,69.9
2023-02-17T10:46:01.783Z,69.9
2023-02-17T10:47:03.614Z,69.9
2023-02-17T10:48:05.492Z,69.9
2023-02-17T10:49:07.754Z,69.9
2023-02-17T10:50:09.313Z,69.9
2023-02-17T10:51:11.145Z,69.9
2023-02-17T10:52:13.250Z,69.9
2023-02-17T10:53:15.077Z,69.9
2023-02-17T10:54:16.938Z,69.9
2023-02-17T10:55:24.059Z,69.9
2023-02-17T10:56:30.983Z,69.9
2023-02-17T10:57:33.055Z,69.9
2023-02-17T10:58:34.754Z,69.9
2023-02-17T10:59:36.671Z,69.9
2023-02-17T11:00:38.683Z,69.9
2023-02-17T11:01:40.405Z,69.9
2023-02-17T11:02:42.368Z,69.9
2023-02-17T11:03:44.458Z,69.9
2023-02-17T11:04:46.106Z,69.9
2023-02-17T11:05:48.066Z,69.9
2023-02-17T11:06:49.937Z,69.9
2023-02-17T11:07:51.818Z,69.9
2023-02-17T11:08:53.647Z,70
2023-02-17T11:09:55.549Z,69.9
2023-02-17T11:10:57.409Z,70
2023-02-17T11:11:59.287Z,70
2023-02-17T11:13:01.705Z,70
2023-02-17T11:14:03.014Z,70
2023-02-17T11:15:04.945Z,70
2023-02-17T11:16:08.203Z,70
2023-02-17T11:17:19.640Z,70
2023-02-17T11:18:21.075Z,70
2023-02-17T11:19:23.162Z,70
2023-02-17T11:20:24.894Z,70.1
2023-02-17T11:21:27.275Z,70
2023-02-17T11:22:28.497Z,70
2023-02-17T11:23:30.528Z,70.1
2023-02-17T11:24:32.255Z,70.1
2023-02-17T11:25:34.749Z,70.1
2023-02-17T11:26:36.264Z,70.1
2023-02-17T11:27:38.142Z,70.1
2023-02-17T11:28:40.038Z,70.1
2023-02-17T11:29:42.124Z,70.1
2023-02-17T11:30:43.816Z,70.2
2023-02-17T11:31:46.083Z,70.2
2023-02-17T11:32:47.637Z,70.2
2023-02-17T11:33:49.461Z,70.2
2023-02-17T11:34:51.298Z,70.2
2023-02-17T11:35:53.265Z,70.2
2023-02-17T11:36:55.158Z,70.2
2023-02-17T11:37:57.020Z,70.3
2023-02-17T11:38:58.962Z,70.3
2023-02-17T11:40:00.837Z,70.3
2023-02-17T11:41:02.692Z,70.3
2023-02-17T11:42:04.588Z,70.3
2023-02-17T11:43:06.508Z,70.3
2023-02-17T11:44:08.423Z,70.3
2023-02-17T11:45:10.262Z,70.4
2023-02-17T11:46:12.284Z,70.4
2023-02-17T11:47:14.266Z,70.4
2023-02-17T11:48:16.070Z,70.4
2023-02-17T11:49:17.949Z,70.4
2023-02-17T11:50:42.087Z,70.4
2023-02-17T11:51:52.689Z,70.5
2023-02-17T11:52:54.531Z,70.5
2023-02-17T11:53:56.410Z,70.5
2023-02-17T11:54:58.493Z,70.5
2023-02-17T11:56:00.231Z,70.5
2023-02-17T11:57:02.087Z,70.5
2023-02-17T11:58:04.248Z,70.5
2023-02-17T11:59:05.887Z,70.5
2023-02-17T12:00:07.744Z,70.5
2023-02-17T12:01:09.684Z,70.5
2023-02-17T12:02:11.604Z,70.5
2023-02-17T12:03:13.475Z,70.5
2023-02-17T12:04:15.426Z,70.6
2023-02-17T12:05:17.426Z,70.6
2023-02-17T12:06:19.064Z,70.5
2023-02-17T12:07:20.987Z,70.5
2023-02-17T12:08:24.812Z,70.5
2023-02-17T12:09:35.044Z,70.5
2023-02-17T12:10:37.109Z,70.5
2023-02-17T12:11:38.803Z,70.5
2023-02-17T12:12:40.748Z,70.5
2023-02-17T12:13:42.631Z,70.6
2023-02-17T12:14:44.464Z,70.6
2023-02-17T12:15:46.462Z,70.6
2023-02-17T12:16:48.338Z,70.5
2023-02-17T12:17:50.138Z,70.5
2023-02-17T12:18:51.936Z,70.5
2023-02-17T12:19:53.834Z,70.5
2023-02-17T12:20:55.815Z,70.5
2023-02-17T12:21:57.720Z,70.5
2023-02-17T12:22:59.453Z,70.6
2023-02-17T12:24:01.472Z,70.5
2023-02-17T12:25:03.334Z,70.5
2023-02-17T12:26:06.279Z,70.5
2023-02-17T12:27:19.374Z,70.6
2023-02-17T12:28:29.638Z,70.6
2023-02-17T12:29:31.495Z,70.6
2023-02-17T12:30:33.783Z,70.6
2023-02-17T12:31:35.725Z,70.6
2023-02-17T12:32:37.207Z,70.6
2023-02-17T12:33:38.994Z,70.6
2023-02-17T12:34:41.035Z,70.6
2023-02-17T12:35:42.921Z,70.6
2023-02-17T12:36:44.679Z,70.6
2023-02-17T12:37:48.875Z,70.6
2023-02-17T12:38:58.876Z,70.6
2023-02-17T12:40:00.658Z,70.6
2023-02-17T12:41:02.602Z,70.7
2023-02-17T12:42:04.678Z,70.6
2023-02-17T12:43:06.595Z,70.7
2023-02-17T12:44:08.275Z,70.7
2023-02-17T12:45:10.258Z,70.7
2023-02-17T12:46:12.589Z,70.7
2023-02-17T12:47:13.927Z,70.7
2023-02-17T12:48:15.875Z,70.7
2023-02-17T12:49:17.755Z,70.7
2023-02-17T12:50:20.065Z,70.7
2023-02-17T12:51:21.506Z,70.7
2023-02-17T12:52:23.466Z,70.7
2023-02-17T12:53:25.276Z,70.7
2023-02-17T12:54:27.856Z,70.7
2023-02-17T12:55:29.203Z,70.7
2023-02-17T12:56:31.065Z,70.7
2023-02-17T12:57:33.009Z,70.7
2023-02-17T12:58:35.145Z,70.7
2023-02-17T12:59:36.805Z,70.7
2023-02-17T13:00:38.626Z,70.7
2023-02-17T13:01:40.753Z,70.7
2023-02-17T13:02:42.488Z,70.7
2023-02-17T13:03:44.247Z,70.7
2023-02-17T13:04:46.194Z,70.8
2023-02-17T13:05:48.137Z,70.8
2023-02-17T13:06:49.893Z,70.8
2023-02-17T13:07:51.805Z,70.8
2023-02-17T13:08:53.726Z,70.8
2023-02-17T13:09:55.527Z,70.8
2023-02-17T13:10:57.487Z,70.8
2023-02-17T13:11:59.386Z,70.8
2023-02-17T13:13:01.300Z,70.8
2023-02-17T13:14:03.208Z,70.8
2023-02-17T13:15:05.027Z,70.8
2023-02-17T13:16:08.681Z,70.8
2023-02-17T13:17:19.225Z,70.8
2023-02-17T13:18:21.169Z,70.8
2023-02-17T13:19:25.050Z,70.8
2023-02-17T13:20:35.290Z,70.8
2023-02-17T13:21:37.109Z,70.8
2023-02-17T13:22:39.070Z,70.9
2023-02-17T13:23:40.831Z,70.9
2023-02-17T13:24:42.641Z,70.9
2023-02-17T13:25:44.603Z,70.9
2023-02-17T13:26:46.500Z,70.9
2023-02-17T13:27:48.280Z,70.9
2023-02-17T13:28:50.403Z,70.9
2023-02-17T13:29:52.200Z,70.9
2023-02-17T13:30:54.352Z,70.9
2023-02-17T13:31:56.551Z,70.9
2023-02-17T13:32:57.940Z,70.9
2023-02-17T13:33:59.706Z,70.9
2023-02-17T13:35:01.592Z,70.9
2023-02-17T13:36:03.459Z,70.9
2023-02-17T13:37:05.380Z,70.9
2023-02-17T13:38:07.281Z,70.9
2023-02-17T13:39:09.179Z,70.9
2023-02-17T13:40:10.998Z,70.9
2023-02-17T13:41:12.898Z,70.9
2023-02-17T13:42:14.838Z,70.8
2023-02-17T13:43:16.860Z,70.8
2023-02-17T13:44:18.665Z,70.9
2023-02-17T13:45:20.941Z,70.8
2023-02-17T13:46:22.682Z,70.8
2023-02-17T13:47:24.258Z,70.8
2023-02-17T13:48:26.196Z,70.8
2023-02-17T13:49:28.516Z,70.8